Time;durP1;ratioP1;P1;durP2;ratioP2;P2;SDS_P1;SDS_P2;PMS_P1;PMS_P2;Temp;Humidity;BMP_temperature;BMP_pressure;BME280_temperature;BME280_humidity;BME280_pressure;Samples;Min_cycle;Max_cycle;Signal;HPM_P1;HPM_P2
2022/05/21 00:00:41;;;;;;;11.98;4.82;;;10.20;99.90;;;;;;5061199;28;20041;-55
2022/05/21 00:03:09;;;;;;;11.00;4.43;;;10.20;99.90;;;;;;5020826;28;20045;-56
2022/05/21 00:05:36;;;;;;;9.65;4.78;;;10.20;99.90;;;;;;5061526;28;20040;-55
2022/05/21 00:08:04;;;;;;;10.73;5.00;;;10.20;99.90;;;;;;5046378;28;20049;-56
2022/05/21 00:10:31;;;;;;;12.80;5.53;;;10.20;99.90;;;;;;5041590;28;20069;-55
2022/05/21 00:12:57;;;;;;;13.35;5.25;;;10.20;99.90;;;;;;5059032;28;20033;-56
2022/05/21 00:15:26;;;;;;;13.20;5.10;;;10.30;99.90;;;;;;5061626;28;20044;-55
2022/05/21 00:17:51;;;;;;;13.52;5.90;;;10.20;99.90;;;;;;5060405;28;20033;-55
2022/05/21 00:23:13;;;;;;;14.27;5.47;;;10.20;99.90;;;;;;5045431;28;20563;-55
2022/05/21 00:25:39;;;;;;;14.13;5.40;;;10.20;99.90;;;;;;5050564;28;20040;-56
2022/05/21 00:28:05;;;;;;;12.38;5.72;;;10.30;99.90;;;;;;5053302;28;20042;-55
2022/05/21 00:30:32;;;;;;;12.88;6.15;;;10.20;99.90;;;;;;5040193;28;20041;-56
2022/05/21 00:32:58;;;;;;;12.88;5.20;;;10.20;99.90;;;;;;5045888;28;20052;-55
2022/05/21 00:35:24;;;;;;;11.95;5.85;;;10.20;99.90;;;;;;5042611;28;20049;-55
2022/05/21 00:37:50;;;;;;;12.20;6.15;;;10.20;99.90;;;;;;5046526;28;20037;-55
2022/05/21 00:40:16;;;;;;;11.60;6.57;;;10.20;99.90;;;;;;5041063;28;20045;-55
2022/05/21 00:42:43;;;;;;;14.25;6.97;;;10.30;99.90;;;;;;5037629;28;20044;-56
2022/05/21 00:45:10;;;;;;;18.65;8.02;;;10.30;99.90;;;;;;5061200;28;20049;-55
2022/05/21 00:47:36;;;;;;;15.35;7.68;;;10.30;99.90;;;;;;5059551;28;20440;-55
2022/05/21 00:50:05;;;;;;;18.40;9.43;;;10.40;99.90;;;;;;5060536;28;20045;-55
2022/05/21 00:52:34;;;;;;;16.75;9.48;;;10.40;99.90;;;;;;5060197;28;20083;-55
2022/05/21 00:55:10;;;;;;;19.45;11.02;;;10.50;99.90;;;;;;5054177;28;20060;-55
2022/05/21 00:57:39;;;;;;;17.55;11.23;;;10.40;99.90;;;;;;5046845;28;20092;-54
2022/05/21 01:00:16;;;;;;;18.25;10.73;;;10.50;99.90;;;;;;5059508;28;20048;-55
2022/05/21 01:02:54;;;;;;;19.42;11.90;;;10.50;99.90;;;;;;5060353;28;20037;-55
2022/05/21 01:05:24;;;;;;;22.13;12.27;;;10.60;99.90;;;;;;5053507;28;20047;-55
2022/05/21 01:07:53;;;;;;;23.98;12.32;;;10.70;99.90;;;;;;5053573;28;20105;-55
2022/05/21 01:10:21;;;;;;;22.73;13.05;;;10.70;99.90;;;;;;5047737;28;20071;-55
2022/05/21 01:12:52;;;;;;;25.10;13.35;;;10.80;99.90;;;;;;5039130;28;20038;-55
2022/05/21 01:15:27;;;;;;;26.75;14.43;;;10.80;99.90;;;;;;5040498;28;20180;-55
2022/05/21 01:17:54;;;;;;;22.30;13.75;;;10.80;99.90;;;;;;5039386;28;20072;-54
2022/05/21 01:20:22;;;;;;;26.15;15.20;;;10.90;99.90;;;;;;5039962;28;20107;-54
2022/05/21 01:22:53;;;;;;;28.55;17.50;;;10.90;99.90;;;;;;5040041;28;20045;-55
2022/05/21 01:25:22;;;;;;;25.63;16.05;;;11.00;99.90;;;;;;5021585;28;20046;-56
2022/05/21 01:27:49;;;;;;;28.08;16.40;;;11.40;99.90;;;;;;5053613;28;20037;-55
2022/05/21 01:30:26;;;;;;;30.60;16.20;;;11.00;99.90;;;;;;5058657;28;20040;-56
2022/05/21 01:32:52;;;;;;;32.00;18.13;;;11.10;99.90;;;;;;5052511;28;20077;-55
2022/05/21 01:35:18;;;;;;;29.02;17.00;;;11.10;99.90;;;;;;5039377;28;20111;-55
2022/05/21 01:37:46;;;;;;;29.20;17.60;;;11.10;99.90;;;;;;5053647;28;20036;-56
2022/05/21 01:40:12;;;;;;;33.33;19.15;;;11.10;99.90;;;;;;5058182;28;20065;-55
2022/05/21 01:42:38;;;;;;;30.20;17.38;;;11.00;99.90;;;;;;5025333;28;20041;-56
2022/05/21 01:45:06;;;;;;;32.83;18.08;;;11.10;99.90;;;;;;5041901;28;20496;-55
2022/05/21 01:47:32;;;;;;;34.92;18.70;;;11.20;99.90;;;;;;5058498;28;20041;-56
2022/05/21 01:49:58;;;;;;;29.77;16.55;;;11.20;99.90;;;;;;5041302;28;20063;-57
2022/05/21 01:52:24;;;;;;;28.15;17.50;;;11.20;99.90;;;;;;5059237;28;20045;-57
2022/05/21 01:54:51;;;;;;;30.70;20.05;;;11.20;99.90;;;;;;5057617;28;20083;-58
2022/05/21 01:57:16;;;;;;;35.35;19.70;;;11.30;99.90;;;;;;5058553;28;20053;-59
2022/05/21 01:59:42;;;;;;;35.08;20.38;;;11.30;99.90;;;;;;5053287;28;20042;-59
2022/05/21 02:02:08;;;;;;;39.90;21.42;;;11.40;99.90;;;;;;5039680;28;20046;-59
2022/05/21 02:04:34;;;;;;;35.22;21.85;;;11.40;99.90;;;;;;5038208;28;20049;-57
2022/05/21 02:07:00;;;;;;;34.75;21.42;;;11.40;99.90;;;;;;5021290;28;20053;-57
2022/05/21 02:09:25;;;;;;;36.38;20.95;;;11.50;99.90;;;;;;5041016;28;20037;-57
2022/05/21 02:11:51;;;;;;;33.55;19.92;;;11.50;99.90;;;;;;5050032;28;20050;-57
2022/05/21 02:14:17;;;;;;;38.08;22.17;;;11.50;99.90;;;;;;5046960;28;20041;-57
2022/05/21 02:16:42;;;;;;;35.40;21.70;;;11.60;99.90;;;;;;5040189;28;20070;-57
2022/05/21 02:19:08;;;;;;;40.08;21.88;;;11.70;99.90;;;;;;5059005;28;20055;-56
2022/05/21 02:21:40;;;;;;;41.42;21.27;;;11.70;99.90;;;;;;5057992;28;20060;-56
2022/05/21 02:24:08;;;;;;;32.88;20.90;;;11.90;99.90;;;;;;5040955;28;20059;-57
2022/05/21 02:26:38;;;;;;;36.00;21.40;;;11.80;99.90;;;;;;5059011;28;20052;-56
2022/05/21 02:29:05;;;;;;;38.03;20.58;;;12.00;99.90;;;;;;5039817;28;20098;-56
2022/05/21 02:31:31;;;;;;;34.85;20.30;;;12.10;99.90;;;;;;5038744;28;20045;-56
2022/05/21 02:33:57;;;;;;;37.58;18.58;;;12.00;99.90;;;;;;5037985;28;20096;-57
2022/05/21 02:39:25;;;;;;;31.20;17.90;;;12.10;99.90;;;;;;5038834;28;20045;-56
2022/05/21 02:41:53;;;;;;;31.30;16.80;;;12.20;99.90;;;;;;5038131;28;20049;-55
2022/05/21 02:44:19;;;;;;;30.65;16.52;;;12.20;99.90;;;;;;5038775;28;20049;-56
2022/05/21 02:46:45;;;;;;;30.50;14.02;;;12.20;99.90;;;;;;5038930;28;20041;-56
2022/05/21 02:49:11;;;;;;;29.95;13.93;;;12.20;99.90;;;;;;5038478;28;20076;-55
2022/05/21 02:51:37;;;;;;;33.92;13.93;;;12.30;99.90;;;;;;5049559;28;20044;-57
2022/05/21 02:54:03;;;;;;;26.23;13.63;;;12.30;99.90;;;;;;5034944;28;20114;-57
2022/05/21 02:56:29;;;;;;;25.40;12.32;;;12.30;99.90;;;;;;5052554;28;20049;-57
2022/05/21 02:58:54;;;;;;;26.25;11.30;;;12.40;99.90;;;;;;5038584;28;20056;-58
2022/05/21 03:01:20;;;;;;;27.90;12.43;;;12.30;99.90;;;;;;5058345;28;20094;-56
2022/05/21 03:03:45;;;;;;;29.30;12.02;;;12.40;99.90;;;;;;5057521;28;20501;-58
2022/05/21 03:06:11;;;;;;;24.42;10.95;;;12.30;99.90;;;;;;5058472;28;20048;-57
2022/05/21 03:11:21;;;;;;;24.27;9.23;;;12.40;99.90;;;;;;5047441;28;20059;-56
2022/05/21 03:13:47;;;;;;;23.67;8.65;;;12.30;99.90;;;;;;5057808;28;20128;-57
2022/05/21 03:16:13;;;;;;;32.85;9.65;;;12.40;99.90;;;;;;5054086;28;20056;-54
2022/05/21 03:18:39;;;;;;;20.88;7.57;;;12.50;99.90;;;;;;5020302;28;20073;-55
2022/05/21 03:21:05;;;;;;;24.90;7.95;;;12.40;99.90;;;;;;5046300;28;20079;-52
2022/05/21 03:23:30;;;;;;;24.30;7.88;;;12.50;99.90;;;;;;5054063;28;20045;-55
2022/05/21 03:25:56;;;;;;;22.08;7.28;;;12.50;99.90;;;;;;5046550;28;20045;-55
2022/05/21 03:28:22;;;;;;;22.88;7.05;;;12.50;99.90;;;;;;5042332;28;20058;-56
2022/05/21 03:30:48;;;;;;;19.95;7.45;;;12.60;99.90;;;;;;5041811;28;20171;-54
2022/05/21 03:33:14;;;;;;;20.33;8.07;;;12.60;99.90;;;;;;5048741;28;20568;-55
2022/05/21 03:35:41;;;;;;;26.00;7.65;;;12.50;99.90;;;;;;5061893;28;20072;-55
2022/05/21 03:38:08;;;;;;;23.55;6.60;;;12.60;99.90;;;;;;5061217;28;20097;-55
2022/05/21 03:40:34;;;;;;;19.98;6.15;;;12.60;99.90;;;;;;5061931;28;20033;-55
2022/05/21 03:43:00;;;;;;;18.55;6.25;;;12.50;99.90;;;;;;5048468;28;20101;-55
2022/05/21 03:45:26;;;;;;;18.80;6.38;;;12.60;99.90;;;;;;5061985;28;20041;-55
2022/05/21 03:47:52;;;;;;;25.05;6.85;;;12.60;99.90;;;;;;5055140;28;20052;-54
2022/05/21 03:50:21;;;;;;;23.60;7.57;;;12.60;99.90;;;;;;5041299;28;20041;-55
2022/05/21 03:52:47;;;;;;;21.02;6.63;;;12.70;99.90;;;;;;5058023;28;20120;-56
2022/05/21 03:55:13;;;;;;;22.45;5.85;;;12.70;99.90;;;;;;5060663;28;20503;-55
2022/05/21 03:57:39;;;;;;;19.60;6.22;;;12.70;99.90;;;;;;5061501;28;20121;-54
2022/05/21 04:00:08;;;;;;;21.40;6.20;;;12.60;99.90;;;;;;5060613;28;20052;-56
2022/05/21 04:02:36;;;;;;;20.27;7.45;;;12.60;99.90;;;;;;5061669;28;20052;-55
2022/05/21 04:05:03;;;;;;;20.38;5.47;;;12.60;99.90;;;;;;5061162;28;20539;-54
2022/05/21 04:07:29;;;;;;;18.25;6.93;;;12.70;99.90;;;;;;5061156;28;20052;-55
2022/05/21 04:09:55;;;;;;;18.50;6.63;;;12.60;99.90;;;;;;5061478;28;20045;-55
2022/05/21 04:12:20;;;;;;;17.67;5.22;;;12.50;99.90;;;;;;5056973;28;20094;-55
2022/05/21 04:14:46;;;;;;;20.30;4.63;;;12.60;99.90;;;;;;5044779;28;20605;-55
2022/05/21 04:17:13;;;;;;;14.70;4.60;;;12.60;99.90;;;;;;5058469;28;20043;-55
2022/05/21 04:19:40;;;;;;;16.73;4.28;;;12.60;99.90;;;;;;5061326;28;20044;-55
2022/05/21 04:22:06;;;;;;;16.75;4.50;;;12.50;99.90;;;;;;5059316;28;20068;-55
2022/05/21 04:24:32;;;;;;;14.93;3.75;;;12.50;99.90;;;;;;5044023;28;20053;-55
2022/05/21 04:26:58;;;;;;;18.95;4.22;;;12.60;99.90;;;;;;5051602;28;20086;-55
2022/05/21 04:29:23;;;;;;;19.35;4.82;;;12.50;99.90;;;;;;5030780;28;20045;-55
2022/05/21 04:31:49;;;;;;;19.65;4.13;;;12.60;99.90;;;;;;5042192;28;20033;-55
2022/05/21 04:34:15;;;;;;;15.60;4.25;;;12.60;99.90;;;;;;5059967;28;20047;-55
2022/05/21 04:36:41;;;;;;;16.77;4.57;;;12.60;99.90;;;;;;5042960;28;20067;-56
2022/05/21 04:39:07;;;;;;;13.52;3.70;;;12.60;99.90;;;;;;5060252;28;20037;-55
2022/05/21 04:41:33;;;;;;;15.80;3.67;;;12.50;99.90;;;;;;5058625;28;20140;-55
2022/05/21 04:43:59;;;;;;;17.17;4.05;;;12.50;99.90;;;;;;5040656;28;20049;-54
2022/05/21 04:46:25;;;;;;;19.23;4.40;;;12.60;99.90;;;;;;5049667;28;20064;-55
2022/05/21 04:48:51;;;;;;;17.67;4.22;;;12.60;99.90;;;;;;5059584;28;20041;-54
2022/05/21 04:51:17;;;;;;;16.15;4.53;;;12.50;99.90;;;;;;5039510;28;20529;-55
2022/05/21 04:53:43;;;;;;;14.88;3.85;;;12.60;99.90;;;;;;5040832;28;20056;-55
2022/05/21 04:56:09;;;;;;;16.52;4.20;;;12.70;99.90;;;;;;5053278;28;20053;-55
2022/05/21 04:58:35;;;;;;;17.38;4.03;;;12.60;99.90;;;;;;5060475;28;20072;-55
2022/05/21 05:01:02;;;;;;;14.70;4.18;;;12.60;99.90;;;;;;5060381;28;20037;-55
2022/05/21 05:03:28;;;;;;;13.13;3.45;;;12.60;99.90;;;;;;5059790;28;20050;-56
2022/05/21 05:05:54;;;;;;;15.63;3.92;;;12.80;99.90;;;;;;5060456;28;20520;-55
2022/05/21 05:08:21;;;;;;;14.90;3.80;;;12.60;99.90;;;;;;5059253;28;20053;-55
2022/05/21 05:10:48;;;;;;;13.65;3.78;;;12.70;99.90;;;;;;5060110;28;20480;-55
2022/05/21 05:13:15;;;;;;;15.73;4.03;;;12.70;99.90;;;;;;5039369;28;20048;-56
2022/05/21 05:15:44;;;;;;;13.00;3.65;;;12.80;99.90;;;;;;5040181;28;20045;-56
2022/05/21 05:18:12;;;;;;;13.05;3.88;;;12.80;99.90;;;;;;5039935;28;20053;-55
2022/05/21 05:20:38;;;;;;;19.40;4.70;;;12.80;99.90;;;;;;5039658;28;20199;-55
2022/05/21 05:23:05;;;;;;;13.15;3.40;;;12.80;99.90;;;;;;5040284;28;20080;-55
2022/05/21 05:25:32;;;;;;;11.60;3.08;;;12.80;99.90;;;;;;5038831;28;20077;-55
2022/05/21 05:27:57;;;;;;;15.43;4.05;;;12.80;99.90;;;;;;5055651;28;20064;-55
2022/05/21 05:30:24;;;;;;;16.27;3.38;;;12.90;99.90;;;;;;5058909;28;20041;-55
2022/05/21 05:32:50;;;;;;;18.83;3.80;;;12.90;99.90;;;;;;5046577;28;20073;-56
2022/05/21 05:35:16;;;;;;;14.43;3.50;;;13.00;99.90;;;;;;5039628;28;20052;-55
2022/05/21 05:37:42;;;;;;;16.45;4.10;;;13.00;99.90;;;;;;5042078;28;20056;-55
2022/05/21 05:40:13;;;;;;;13.35;3.03;;;13.00;99.90;;;;;;5044244;28;20041;-55
2022/05/21 05:42:39;;;;;;;17.88;3.40;;;13.00;99.90;;;;;;5041844;28;20050;-56
2022/05/21 05:45:08;;;;;;;16.70;2.80;;;13.10;99.90;;;;;;5039973;28;20037;-55
2022/05/21 05:47:34;;;;;;;16.10;3.42;;;13.00;99.90;;;;;;5035648;28;20049;-56
2022/05/21 05:50:00;;;;;;;17.27;3.83;;;13.10;99.90;;;;;;5053461;28;20140;-55
2022/05/21 05:52:27;;;;;;;12.07;2.90;;;13.10;99.90;;;;;;5056146;28;20049;-55
2022/05/21 05:54:53;;;;;;;17.30;3.97;;;13.10;99.90;;;;;;5055385;28;20072;-55
2022/05/21 05:57:19;;;;;;;21.05;3.92;;;13.20;99.90;;;;;;5048117;28;20697;-55
2022/05/21 05:59:50;;;;;;;17.55;4.85;;;13.20;99.90;;;;;;5054130;28;20048;-56
2022/05/21 06:05:11;;;;;;;17.38;4.38;;;13.30;99.90;;;;;;5051297;28;20061;-55
2022/05/21 06:07:48;;;;;;;19.63;3.83;;;13.40;99.90;;;;;;5043283;28;20220;-55
2022/05/21 06:10:17;;;;;;;16.48;3.97;;;13.50;99.90;;;;;;5038971;28;20053;-55
2022/05/21 06:12:43;;;;;;;17.75;3.50;;;13.40;99.90;;;;;;5051268;28;20076;-55
2022/05/21 06:15:10;;;;;;;23.42;5.13;;;13.50;99.90;;;;;;5052869;28;20050;-55
2022/05/21 06:17:38;;;;;;;13.40;3.40;;;13.40;99.90;;;;;;5034906;28;20073;-54
2022/05/21 06:20:06;;;;;;;13.15;3.20;;;13.50;99.90;;;;;;5036529;28;20073;-54
2022/05/21 06:22:32;;;;;;;15.40;3.20;;;13.60;99.90;;;;;;5020236;28;20052;-55
2022/05/21 06:24:59;;;;;;;16.13;3.58;;;13.60;99.90;;;;;;5038329;28;20037;-55
2022/05/21 06:27:24;;;;;;;12.60;3.55;;;13.60;99.90;;;;;;5039103;28;20508;-54
2022/05/21 06:29:50;;;;;;;11.23;3.03;;;13.60;99.90;;;;;;5050725;28;20036;-55
2022/05/21 06:32:16;;;;;;;13.48;3.00;;;13.50;99.90;;;;;;5059063;28;20043;-55
2022/05/21 06:34:42;;;;;;;14.73;3.28;;;13.50;99.90;;;;;;5050295;28;20060;-55
2022/05/21 06:37:10;;;;;;;14.40;3.55;;;13.40;99.90;;;;;;5038692;28;20045;-55
2022/05/21 06:39:37;;;;;;;18.10;3.63;;;13.50;99.90;;;;;;5034246;28;20064;-55
2022/05/21 06:42:04;;;;;;;16.48;3.40;;;13.60;99.90;;;;;;5050982;28;20041;-54
2022/05/21 06:44:30;;;;;;;10.65;2.85;;;13.60;99.90;;;;;;5058822;28;20041;-54
2022/05/21 06:46:57;;;;;;;10.45;3.45;;;13.70;99.90;;;;;;5039610;28;20041;-55
2022/05/21 06:49:23;;;;;;;12.38;3.20;;;13.60;99.90;;;;;;5039382;28;20052;-55
2022/05/21 06:51:54;;;;;;;14.73;3.65;;;13.90;99.90;;;;;;5037475;28;20041;-54
2022/05/21 06:54:20;;;;;;;15.98;3.97;;;14.00;99.90;;;;;;5037743;28;20076;-54
2022/05/21 06:56:46;;;;;;;15.32;3.63;;;14.00;99.90;;;;;;5055162;28;20109;-55
2022/05/21 06:59:11;;;;;;;12.38;3.05;;;14.00;99.90;;;;;;5057309;28;20045;-56
2022/05/21 07:01:37;;;;;;;13.07;3.67;;;14.10;99.90;;;;;;5044848;28;20052;-54
2022/05/21 07:04:03;;;;;;;14.57;4.20;;;14.20;99.90;;;;;;5057156;28;20044;-55
2022/05/21 07:09:13;;;;;;;11.65;3.45;;;14.10;99.90;;;;;;5040359;28;20065;-55
2022/05/21 07:11:39;;;;;;;19.48;3.78;;;14.10;99.90;;;;;;5048894;28;20172;-55
2022/05/21 07:14:05;;;;;;;14.63;3.53;;;14.10;99.90;;;;;;5038408;28;20072;-55
2022/05/21 07:16:31;;;;;;;14.57;3.20;;;14.20;99.90;;;;;;5037598;28;20414;-55
2022/05/21 07:18:57;;;;;;;15.45;3.25;;;14.20;99.90;;;;;;5020346;28;20093;-55
2022/05/21 07:21:23;;;;;;;16.10;4.18;;;14.20;99.90;;;;;;5037181;28;20073;-56
2022/05/21 07:23:50;;;;;;;11.65;3.45;;;14.10;99.90;;;;;;5055567;28;20048;-56
2022/05/21 07:26:17;;;;;;;12.82;3.30;;;14.00;99.90;;;;;;5057416;28;20045;-56
2022/05/21 07:28:43;;;;;;;13.80;4.03;;;14.20;99.90;;;;;;5057762;28;20052;-55
2022/05/21 07:31:08;;;;;;;13.48;3.33;;;14.30;99.90;;;;;;5057502;28;20041;-56
2022/05/21 07:33:35;;;;;;;14.25;3.72;;;14.30;99.90;;;;;;5045011;28;20188;-58
2022/05/21 07:36:00;;;;;;;15.13;3.10;;;14.30;99.90;;;;;;5038140;28;20059;-56
2022/05/21 07:38:26;;;;;;;16.00;3.30;;;14.20;99.90;;;;;;5018365;28;20069;-53
2022/05/21 07:40:53;;;;;;;17.85;3.20;;;14.10;99.90;;;;;;5054915;28;20069;-54
2022/05/21 07:43:27;;;;;;;16.48;3.63;;;14.40;99.90;;;;;;5050833;28;20087;-55
2022/05/21 07:45:54;;;;;;;17.80;3.25;;;14.40;99.90;;;;;;5047033;28;20042;-54
2022/05/21 07:48:21;;;;;;;15.45;4.93;;;14.40;99.90;;;;;;5020092;28;20045;-54
2022/05/21 07:51:06;;;;;;;14.52;3.15;;;14.30;99.90;;;;;;5037321;28;20046;-55
2022/05/21 07:53:36;;;;;;;13.10;3.42;;;14.50;99.90;;;;;;5038326;28;20069;-55
2022/05/21 07:56:02;;;;;;;14.77;3.38;;;14.60;99.90;;;;;;5036694;28;20053;-54
2022/05/21 07:58:31;;;;;;;12.48;3.10;;;14.70;99.90;;;;;;5037619;28;20612;-55
2022/05/21 08:00:57;;;;;;;12.63;2.75;;;14.90;99.90;;;;;;5037922;28;20038;-55
2022/05/21 08:03:24;;;;;;;14.57;3.15;;;14.90;99.90;;;;;;5036415;28;20046;-56
2022/05/21 08:05:50;;;;;;;13.70;3.83;;;14.90;99.90;;;;;;5037140;28;20045;-54
2022/05/21 08:08:16;;;;;;;12.93;2.83;;;14.70;99.90;;;;;;5022837;28;20038;-55
2022/05/21 08:10:44;;;;;;;15.93;3.22;;;14.60;99.90;;;;;;5022044;28;20061;-55
2022/05/21 08:13:12;;;;;;;11.60;3.05;;;14.80;99.90;;;;;;5036650;28;20037;-54
2022/05/21 08:15:38;;;;;;;14.93;3.97;;;14.80;99.90;;;;;;5025246;28;20061;-53
2022/05/21 08:18:05;;;;;;;16.60;3.40;;;14.80;99.90;;;;;;5021128;28;20042;-55
2022/05/21 08:20:32;;;;;;;12.57;2.60;;;14.80;99.90;;;;;;5020921;28;20052;-54
2022/05/21 08:28:26;;;;;;;16.52;2.92;;;14.30;99.90;;;;;;5027179;28;20056;-55
2022/05/21 08:30:52;;;;;;;13.65;3.20;;;14.20;99.90;;;;;;5021187;28;20088;-56
2022/05/21 08:33:19;;;;;;;16.67;3.35;;;14.30;99.90;;;;;;5019573;28;20050;-55
2022/05/21 08:35:45;;;;;;;9.90;2.72;;;14.20;99.90;;;;;;5021494;28;20052;-54
2022/05/21 08:38:12;;;;;;;13.25;3.45;;;14.10;99.90;;;;;;5020629;28;20045;-55
2022/05/21 08:40:44;;;;;;;18.92;3.30;;;14.50;99.90;;;;;;5032850;28;20041;-55
2022/05/21 08:43:27;;;;;;;14.98;2.83;;;14.90;99.90;;;;;;5023257;28;20104;-54
2022/05/21 08:46:02;;;;;;;13.23;2.63;;;14.90;99.90;;;;;;5020704;28;20058;-54
2022/05/21 08:48:32;;;;;;;15.73;2.83;;;14.80;99.90;;;;;;5029129;28;20102;-53
2022/05/21 08:51:02;;;;;;;14.45;3.22;;;14.50;99.90;;;;;;5034994;28;20469;-54
2022/05/21 08:53:29;;;;;;;15.73;3.65;;;14.70;99.90;;;;;;5039176;28;20045;-55
2022/05/21 08:55:58;;;;;;;17.35;3.95;;;14.60;99.90;;;;;;5055908;28;20053;-54
2022/05/21 08:59:03;;;;;;;12.73;2.97;;;14.60;99.90;;;;;;5052237;28;20075;-55
2022/05/21 09:01:29;;;;;;;13.82;3.10;;;15.10;99.90;;;;;;5060725;28;20063;-54
2022/05/21 09:03:57;;;;;;;11.57;3.30;;;15.10;99.90;;;;;;5059266;28;20055;-55
2022/05/21 09:06:34;;;;;;;12.43;2.90;;;14.90;99.90;;;;;;5060882;28;20401;-54
2022/05/21 09:09:26;;;;;;;15.18;2.97;;;14.80;99.90;;;;;;5059480;28;20056;-55
2022/05/21 09:12:21;;;;;;;10.05;2.60;;;14.70;99.90;;;;;;5052915;28;20049;-54
2022/05/21 09:14:53;;;;;;;10.82;2.72;;;14.70;99.90;;;;;;5045186;28;20524;-54
2022/05/21 09:17:23;;;;;;;16.20;2.90;;;14.90;99.90;;;;;;5058773;28;20045;-54
2022/05/21 09:20:01;;;;;;;14.73;3.33;;;14.90;99.90;;;;;;5059856;28;20092;-54
2022/05/21 09:22:27;;;;;;;14.30;2.78;;;14.80;99.90;;;;;;5027586;28;20053;-54
2022/05/21 09:24:58;;;;;;;10.20;2.88;;;15.00;99.90;;;;;;5038781;28;20547;-55
2022/05/21 09:27:38;;;;;;;14.25;3.28;;;15.30;99.90;;;;;;5054700;28;20280;-56
2022/05/21 09:30:33;;;;;;;11.20;2.83;;;14.90;99.90;;;;;;5058722;28;20072;-55
2022/05/21 09:33:22;;;;;;;15.25;3.85;;;15.10;99.90;;;;;;5059280;28;20159;-55
2022/05/21 09:35:53;;;;;;;9.25;2.58;;;15.20;99.90;;;;;;5059782;28;20044;-54
2022/05/21 09:38:34;;;;;;;12.33;2.77;;;15.40;99.90;;;;;;5040420;28;20045;-54
2022/05/21 09:41:18;;;;;;;13.98;2.95;;;15.30;99.90;;;;;;5041685;28;20045;-54
2022/05/21 09:47:24;;;;;;;11.98;2.28;;;15.50;99.90;;;;;;5058245;28;20055;-55
2022/05/21 09:50:05;;;;;;;11.35;2.70;;;15.50;99.90;;;;;;5046705;28;20092;-55
2022/05/21 09:52:32;;;;;;;7.93;2.38;;;15.40;99.90;;;;;;5047071;28;20057;-56
2022/05/21 09:54:58;;;;;;;9.95;2.53;;;15.50;99.90;;;;;;5058343;28;20520;-55
2022/05/21 09:57:39;;;;;;;12.93;2.75;;;15.30;99.90;;;;;;5049299;28;20046;-55
2022/05/21 10:00:16;;;;;;;13.82;2.47;;;15.10;99.90;;;;;;5058287;28;20040;-55
2022/05/21 10:02:46;;;;;;;9.68;2.70;;;15.20;99.90;;;;;;5041275;28;20122;-54
2022/05/21 10:05:29;;;;;;;10.23;2.45;;;14.90;99.90;;;;;;5040829;28;20052;-54
2022/05/21 10:11:23;;;;;;;13.20;2.60;;;15.90;99.90;;;;;;5058888;28;20657;-54
2022/05/21 10:13:55;;;;;;;11.73;2.88;;;15.50;99.90;;;;;;5057179;28;20048;-55
2022/05/21 10:16:24;;;;;;;13.15;2.50;;;15.30;99.90;;;;;;5043898;28;20049;-55
2022/05/21 10:19:14;;;;;;;11.55;2.78;;;15.20;99.90;;;;;;5039323;28;20049;-55
2022/05/21 10:22:18;;;;;;;12.63;2.60;;;15.30;99.90;;;;;;5038874;28;20049;-54
2022/05/21 10:25:16;;;;;;;11.60;2.60;;;15.00;99.90;;;;;;5054678;28;20064;-55
2022/05/21 10:27:50;;;;;;;10.43;2.65;;;15.10;99.90;;;;;;5046485;28;20042;-56
2022/05/21 10:30:27;;;;;;;9.70;2.38;;;15.40;99.90;;;;;;5037710;28;20084;-53
2022/05/21 10:33:18;;;;;;;12.90;2.78;;;15.90;99.90;;;;;;5038595;28;20068;-54
2022/05/21 10:36:24;;;;;;;11.65;2.45;;;16.00;99.90;;;;;;5046932;28;20044;-54
2022/05/21 10:39:08;;;;;;;9.50;2.60;;;15.90;99.90;;;;;;5056765;28;20080;-55
2022/05/21 10:41:51;;;;;;;9.55;2.25;;;16.40;99.90;;;;;;5057892;28;20041;-54
2022/05/21 10:44:24;;;;;;;9.07;2.20;;;16.10;99.90;;;;;;5048275;28;20274;-54
2022/05/21 10:46:51;;;;;;;13.43;2.80;;;16.20;99.90;;;;;;5044540;28;20083;-53
2022/05/21 10:49:29;;;;;;;12.45;2.47;;;15.90;99.90;;;;;;5058553;28;20116;-55
2022/05/21 10:52:01;;;;;;;11.20;2.38;;;16.60;99.90;;;;;;5057111;28;20090;-56
2022/05/21 10:55:12;;;;;;;10.43;2.22;;;16.50;99.90;;;;;;5055294;28;20068;-53
2022/05/21 10:58:08;;;;;;;7.10;1.65;;;16.10;99.90;;;;;;5038462;28;20131;-54
2022/05/21 11:00:53;;;;;;;10.57;1.98;;;15.90;99.90;;;;;;5053970;28;20045;-54
2022/05/21 11:03:31;;;;;;;9.25;2.80;;;16.00;99.90;;;;;;5048350;28;20068;-55
2022/05/21 11:06:32;;;;;;;12.77;2.28;;;16.30;99.90;;;;;;5035431;28;20052;-53
2022/05/21 11:09:29;;;;;;;9.52;2.00;;;16.90;99.90;;;;;;5030265;28;20123;-54
2022/05/21 11:12:04;;;;;;;11.77;2.10;;;16.70;99.90;;;;;;5034293;28;20053;-54
2022/05/21 11:14:43;;;;;;;9.25;2.08;;;16.80;99.90;;;;;;5039844;28;20117;-54
2022/05/21 11:17:29;;;;;;;10.40;2.63;;;16.60;99.90;;;;;;5042402;28;20053;-53
2022/05/21 11:20:03;;;;;;;10.45;2.28;;;16.50;99.90;;;;;;5054663;28;20386;-53
2022/05/21 11:22:44;;;;;;;10.40;1.85;;;16.80;99.90;;;;;;5054022;28;20045;-53
2022/05/21 11:25:18;;;;;;;14.47;2.53;;;16.90;99.90;;;;;;5046818;28;20095;-54
2022/05/21 11:28:22;;;;;;;10.48;2.35;;;16.80;99.90;;;;;;5052962;28;20052;-54
2022/05/21 11:30:47;;;;;;;11.02;2.30;;;17.10;99.90;;;;;;5054830;28;20076;-52
2022/05/21 11:39:15;;;;;;;11.57;2.30;;;17.30;99.90;;;;;;4990976;28;20053;-52
2022/05/21 11:42:08;;;;;;;13.25;3.08;;;17.00;99.90;;;;;;4994383;28;20125;-54
2022/05/21 11:44:58;;;;;;;10.82;2.30;;;16.90;99.90;;;;;;5024177;28;20133;-53
2022/05/21 11:47:26;;;;;;;11.35;2.38;;;17.30;99.90;;;;;;5039797;28;20049;-52
2022/05/21 11:49:57;;;;;;;11.88;2.63;;;17.30;99.90;;;;;;5058011;28;20095;-52
2022/05/21 11:52:31;;;;;;;15.18;3.10;;;17.00;99.90;;;;;;5057740;28;20106;-53
2022/05/21 11:54:56;;;;;;;11.10;2.00;;;17.30;99.90;;;;;;5051482;28;20061;-56
2022/05/21 11:57:50;;;;;;;11.23;2.53;;;17.30;99.90;;;;;;5047901;28;20068;-53
2022/05/21 12:00:18;;;;;;;10.15;2.10;;;17.40;99.90;;;;;;5037493;28;20147;-52
2022/05/21 12:02:59;;;;;;;10.73;2.10;;;17.40;99.90;;;;;;5038345;28;20045;-53
2022/05/21 12:05:34;;;;;;;12.48;2.38;;;17.20;99.90;;;;;;5039357;28;20127;-52
2022/05/21 12:08:08;;;;;;;10.82;2.00;;;17.50;99.90;;;;;;5039930;28;20041;-52
2022/05/21 12:11:02;;;;;;;11.60;2.47;;;17.90;99.90;;;;;;5041658;28;20136;-53
2022/05/21 12:13:33;;;;;;;9.98;2.47;;;17.80;99.90;;;;;;5041072;28;20056;-55
2022/05/21 12:16:00;;;;;;;9.63;2.00;;;17.60;99.90;;;;;;5040910;28;20045;-52
2022/05/21 12:18:25;;;;;;;9.05;2.05;;;17.40;99.90;;;;;;5041348;28;20076;-52
2022/05/21 12:20:52;;;;;;;9.65;2.38;;;17.20;99.90;;;;;;5041462;28;20037;-53
2022/05/21 12:23:29;;;;;;;11.90;3.03;;;16.80;99.90;;;;;;5054595;28;20524;-52
2022/05/21 12:26:12;;;;;;;9.98;2.03;;;16.70;99.90;;;;;;5060360;28;20041;-52
2022/05/21 12:28:46;;;;;;;10.38;2.22;;;16.90;99.90;;;;;;5047283;28;20045;-52
2022/05/21 12:31:21;;;;;;;8.82;1.90;;;17.00;99.90;;;;;;5046047;28;20104;-52
2022/05/21 12:34:21;;;;;;;11.77;2.20;;;16.60;99.90;;;;;;5053751;28;20041;-53
2022/05/21 12:37:05;;;;;;;8.90;1.98;;;16.40;99.90;;;;;;5048025;28;20037;-53
2022/05/21 12:39:59;;;;;;;8.07;2.17;;;16.70;99.90;;;;;;5040821;28;20078;-53
2022/05/21 12:42:47;;;;;;;10.45;1.92;;;16.70;99.90;;;;;;5053507;28;20048;-53
2022/05/21 12:45:34;;;;;;;9.20;1.67;;;17.30;99.90;;;;;;5061009;28;20045;-54
2022/05/21 12:48:10;;;;;;;10.20;1.95;;;16.90;99.90;;;;;;5060179;28;20072;-53
2022/05/21 12:50:45;;;;;;;7.75;1.75;;;16.80;99.90;;;;;;5058663;28;20037;-54
2022/05/21 12:53:12;;;;;;;8.32;2.00;;;16.70;99.90;;;;;;5039462;28;20045;-54
2022/05/21 12:55:38;;;;;;;9.50;2.33;;;16.50;99.90;;;;;;5026018;28;20484;-54
2022/05/21 12:58:07;;;;;;;8.10;1.67;;;16.70;99.90;;;;;;5058193;28;20049;-54
2022/05/21 13:00:34;;;;;;;9.52;1.80;;;17.20;99.90;;;;;;5060049;28;20052;-52
2022/05/21 13:03:07;;;;;;;9.88;2.10;;;17.10;99.90;;;;;;5043879;28;20052;-53
2022/05/21 13:05:37;;;;;;;6.13;1.48;;;17.20;99.90;;;;;;5041613;28;20042;-53
2022/05/21 13:08:05;;;;;;;10.02;1.90;;;17.30;99.90;;;;;;5024346;28;20049;-53
2022/05/21 13:10:39;;;;;;;8.88;1.98;;;16.80;99.90;;;;;;5033214;28;20033;-53
2022/05/21 13:13:11;;;;;;;7.00;1.80;;;16.90;99.90;;;;;;5043628;28;20062;-53
2022/05/21 13:15:56;;;;;;;7.32;1.48;;;17.00;99.90;;;;;;5054402;28;20037;-53
2022/05/21 13:18:31;;;;;;;7.63;1.60;;;17.10;99.90;;;;;;5057527;28;20045;-52
2022/05/21 13:21:15;;;;;;;9.80;1.65;;;17.20;99.90;;;;;;5056005;28;20029;-53
2022/05/21 13:24:06;;;;;;;9.07;1.85;;;17.40;99.90;;;;;;5059418;28;20045;-53
2022/05/21 13:26:34;;;;;;;11.15;2.42;;;17.40;99.90;;;;;;5053707;28;20474;-53